createdAt,value
2023-01-19T00:01:48.265Z,86.72
2023-01-19T00:03:50.207Z,86.40
2023-01-19T00:05:52.504Z,86.80
2023-01-19T00:07:53.907Z,86.60
2023-01-19T00:09:55.270Z,86.70
2023-01-19T00:11:56.632Z,86.99
2023-01-19T00:13:58.838Z,86.88
2023-01-19T00:16:00.217Z,86.55
2023-01-19T00:18:01.671Z,86.68
2023-01-19T00:20:03.913Z,86.46
2023-01-19T00:22:07.931Z,86.88
2023-01-19T00:24:10.396Z,86.27
2023-01-19T00:26:12.055Z,86.68
2023-01-19T00:28:16.245Z,86.35
2023-01-19T00:30:18.228Z,86.62
2023-01-19T00:32:20.291Z,86.28
2023-01-19T00:34:21.699Z,86.75
2023-01-19T00:36:23.093Z,86.94
2023-01-19T00:38:24.480Z,86.92
2023-01-19T00:40:25.863Z,86.50
2023-01-19T00:42:45.839Z,86.54
2023-01-19T00:44:47.189Z,86.65
2023-01-19T00:46:48.558Z,86.74
2023-01-19T00:48:49.961Z,86.86
2023-01-19T00:50:51.396Z,86.92
2023-01-19T00:52:54.546Z,86.57
2023-01-19T00:54:55.907Z,86.79
2023-01-19T00:56:57.280Z,86.14
2023-01-19T00:58:58.722Z,87.18
2023-01-19T01:01:03.714Z,87.32
2023-01-19T01:03:05.501Z,87.15
2023-01-19T01:05:08.549Z,86.90
2023-01-19T01:07:10.041Z,86.74
2023-01-19T01:09:14.397Z,86.93
2023-01-19T01:11:15.810Z,86.75
2023-01-19T01:13:20.267Z,86.88
2023-01-19T01:15:26.888Z,86.94
2023-01-19T01:17:28.268Z,87.04
2023-01-19T01:19:29.942Z,86.94
2023-01-19T01:21:31.381Z,87.21
2023-01-19T01:23:34.253Z,87.11
2023-01-19T01:25:37.748Z,86.83
2023-01-19T01:27:39.148Z,86.82
2023-01-19T01:29:42.648Z,87.10
2023-01-19T01:31:44.065Z,86.71
2023-01-19T01:33:45.838Z,86.77
2023-01-19T01:35:49.560Z,86.64
2023-01-19T01:37:51.096Z,86.50
2023-01-19T01:39:52.526Z,86.19
2023-01-19T01:41:54.032Z,86.60
2023-01-19T01:44:01.496Z,86.54
2023-01-19T01:46:02.973Z,86.42
2023-01-19T01:48:18.453Z,86.38
2023-01-19T01:50:26.672Z,86.36
2023-01-19T01:52:32.297Z,86.39
2023-01-19T01:54:34.073Z,86.38
2023-01-19T01:56:40.294Z,86.03
2023-01-19T01:58:42.126Z,86.46
2023-01-19T02:01:02.530Z,86.17
2023-01-19T02:03:04.389Z,86.58
2023-01-19T02:05:34.546Z,86.28
2023-01-19T02:08:16.487Z,86.45
2023-01-19T02:10:37.465Z,86.60
2023-01-19T02:12:57.820Z,86.42
2023-01-19T02:14:59.631Z,86.05
2023-01-19T02:17:01.146Z,85.67
2023-01-19T02:19:04.241Z,85.92
2023-01-19T02:21:11.577Z,85.63
2023-01-19T02:23:22.890Z,85.50
2023-01-19T02:25:25.140Z,85.13
2023-01-19T02:27:26.599Z,85.26
2023-01-19T02:29:28.751Z,85.33
2023-01-19T02:31:31.854Z,85.45
2023-01-19T02:33:33.597Z,84.90
2023-01-19T02:35:38.181Z,84.53
2023-01-19T02:37:40.984Z,84.72
2023-01-19T02:39:58.874Z,85.06
2023-01-19T02:42:05.996Z,85.38
2023-01-19T02:44:08.979Z,85.40
2023-01-19T02:46:10.757Z,84.86
2023-01-19T02:48:12.161Z,84.57
2023-01-19T02:50:38.203Z,84.95
2023-01-19T02:52:39.633Z,84.98
2023-01-19T02:54:50.085Z,84.72
2023-01-19T02:57:09.799Z,84.49
2023-01-19T02:59:48.257Z,84.32
2023-01-19T03:02:19.481Z,84.47
2023-01-19T03:04:57.464Z,84.51
2023-01-19T03:07:13.719Z,84.73
2023-01-19T03:09:21.171Z,84.16
2023-01-19T03:11:26.870Z,84.41
2023-01-19T03:13:53.475Z,84.06
2023-01-19T03:16:11.663Z,84.01
2023-01-19T03:18:15.039Z,83.77
2023-01-19T03:20:24.655Z,84.04
2023-01-19T03:22:29.254Z,83.81
2023-01-19T03:24:33.566Z,83.72
2023-01-19T03:26:42.978Z,84.05
2023-01-19T03:28:47.395Z,84.14
2023-01-19T03:30:57.914Z,84.03
2023-01-19T03:33:11.164Z,84.13
2023-01-19T03:35:15.957Z,84.64
2023-01-19T03:37:21.312Z,84.31
2023-01-19T03:39:24.591Z,84.46
2023-01-19T03:41:28.397Z,84.63
2023-01-19T03:43:31.727Z,84.18
2023-01-19T03:45:36.737Z,83.90
2023-01-19T03:47:38.441Z,84.27
2023-01-19T03:49:42.938Z,84.36
2023-01-19T03:51:44.674Z,84.32
2023-01-19T03:53:46.761Z,84.60
2023-01-19T03:55:50.506Z,84.36
2023-01-19T03:57:51.860Z,84.62
2023-01-19T03:59:53.537Z,84.63
2023-01-19T04:01:54.894Z,84.37
2023-01-19T04:03:56.343Z,84.12
2023-01-19T04:05:57.843Z,83.97
2023-01-19T04:07:59.234Z,83.76
2023-01-19T04:10:00.638Z,83.85
2023-01-19T04:12:02.261Z,83.85
2023-01-19T04:14:04.014Z,84.23
2023-01-19T04:16:06.499Z,84.13
2023-01-19T04:18:08.706Z,84.00
2023-01-19T04:20:10.637Z,84.02
2023-01-19T04:22:12.032Z,83.43
2023-01-19T04:24:13.586Z,83.62
2023-01-19T04:26:15.094Z,83.30
2023-01-19T04:28:16.649Z,83.90
2023-01-19T04:30:18.477Z,83.88
2023-01-19T04:32:19.944Z,84.09
2023-01-19T04:34:21.304Z,84.41
2023-01-19T04:36:22.887Z,84.35
2023-01-19T04:38:25.253Z,84.64
2023-01-19T04:40:26.606Z,85.04
2023-01-19T04:42:28.016Z,84.87
2023-01-19T04:44:29.494Z,85.19
2023-01-19T04:46:30.942Z,85.39
2023-01-19T04:48:32.774Z,84.96
2023-01-19T04:50:34.195Z,84.63
2023-01-19T04:52:35.993Z,85.42
2023-01-19T04:54:37.446Z,85.27
2023-01-19T04:56:40.769Z,85.20
2023-01-19T04:58:42.174Z,85.33
2023-01-19T05:00:43.561Z,85.49
2023-01-19T05:02:45.318Z,85.84
2023-01-19T05:04:46.748Z,86.02
2023-01-19T05:06:48.447Z,87.12
2023-01-19T05:08:49.827Z,88.24
2023-01-19T05:10:51.180Z,88.71
2023-01-19T05:12:52.846Z,89.34
2023-01-19T05:14:54.256Z,90.01
2023-01-19T05:16:55.612Z,90.28
2023-01-19T05:18:57.002Z,90.50
2023-01-19T05:20:58.358Z,90.48
2023-01-19T05:23:00.197Z,90.56
2023-01-19T05:25:01.951Z,90.94
2023-01-19T05:27:03.798Z,90.98
2023-01-19T05:29:05.236Z,90.98
2023-01-19T05:31:06.865Z,91.02
2023-01-19T05:33:08.369Z,91.15
2023-01-19T05:35:10.175Z,91.39
2023-01-19T05:37:11.555Z,91.19
2023-01-19T05:39:14.197Z,91.52
2023-01-19T05:41:15.562Z,91.19
2023-01-19T05:43:16.943Z,91.67
2023-01-19T05:45:18.307Z,91.41
2023-01-19T05:47:19.732Z,91.86
2023-01-19T05:49:21.128Z,92.27
2023-01-19T05:51:22.509Z,92.21
2023-01-19T05:53:23.929Z,92.25
2023-01-19T05:55:25.947Z,92.31
2023-01-19T05:57:27.290Z,92.21
2023-01-19T05:59:28.772Z,91.90
2023-01-19T06:01:30.213Z,91.89
2023-01-19T06:03:32.759Z,91.85
2023-01-19T06:05:35.463Z,91.89
2023-01-19T06:07:36.817Z,92.42
2023-01-19T06:09:38.264Z,92.14
2023-01-19T06:11:39.715Z,92.19
2023-01-19T06:13:42.136Z,92.61
2023-01-19T06:15:44.932Z,92.45
2023-01-19T06:17:46.350Z,92.40
2023-01-19T06:19:47.717Z,92.95
2023-01-19T06:21:52.047Z,92.53
2023-01-19T06:23:53.510Z,93.22
2023-01-19T06:25:55.085Z,92.81
2023-01-19T06:27:56.505Z,93.19
2023-01-19T06:29:57.841Z,93.68
2023-01-19T06:31:59.291Z,92.89
2023-01-19T06:34:00.982Z,92.84
2023-01-19T06:36:05.600Z,92.98
2023-01-19T06:38:07.026Z,93.10
2023-01-19T06:40:09.189Z,92.65
2023-01-19T06:42:11.290Z,92.95
2023-01-19T06:44:12.809Z,92.92
2023-01-19T06:46:14.319Z,93.03
2023-01-19T06:48:16.515Z,93.06
2023-01-19T06:50:18.005Z,92.71
2023-01-19T06:52:20.447Z,93.17
2023-01-19T06:54:22.278Z,92.86
2023-01-19T06:56:23.653Z,92.85
2023-01-19T06:58:25.316Z,92.84
2023-01-19T07:00:27.828Z,93.70
2023-01-19T07:02:29.270Z,93.46
2023-01-19T07:04:30.748Z,93.36
2023-01-19T07:06:32.233Z,93.30
2023-01-19T07:08:35.104Z,92.99
2023-01-19T07:11:26.478Z,92.95
2023-01-19T07:12:59.088Z,93.12
2023-01-19T07:15:00.857Z,92.46
2023-01-19T07:17:02.918Z,92.72
2023-01-19T07:19:04.644Z,92.41
2023-01-19T07:21:07.054Z,92.92
2023-01-19T07:23:09.350Z,93.16
2023-01-19T07:25:10.733Z,93.05
2023-01-19T07:27:12.250Z,93.00
2023-01-19T07:29:13.988Z,92.95
2023-01-19T07:31:16.097Z,92.92
2023-01-19T07:33:17.565Z,93.03
2023-01-19T07:35:18.907Z,93.37
2023-01-19T07:37:20.350Z,93.04
2023-01-19T07:39:21.834Z,93.05
2023-01-19T07:41:23.461Z,92.99
2023-01-19T07:43:24.891Z,92.68
2023-01-19T07:45:28.006Z,93.40
2023-01-19T07:47:29.927Z,93.00
2023-01-19T07:49:31.307Z,92.86
2023-01-19T07:51:32.856Z,92.77
2023-01-19T07:53:34.587Z,92.54
2023-01-19T07:55:36.246Z,92.42
2023-01-19T07:57:37.717Z,92.93
2023-01-19T07:59:39.142Z,93.00
2023-01-19T08:01:40.578Z,92.00
2023-01-19T08:03:42.410Z,92.55
2023-01-19T08:05:44.706Z,92.28
2023-01-19T08:07:46.538Z,92.52
2023-01-19T08:09:48.070Z,92.06
2023-01-19T08:11:49.486Z,92.34
2023-01-19T08:13:50.913Z,91.94
2023-01-19T08:15:54.026Z,91.90
2023-01-19T08:18:00.314Z,91.94
2023-01-19T08:20:01.665Z,92.17
2023-01-19T08:22:03.707Z,92.31
2023-01-19T08:24:05.429Z,92.18
2023-01-19T08:26:30.497Z,92.25
2023-01-19T08:28:32.064Z,92.14
2023-01-19T08:30:34.252Z,92.19
2023-01-19T08:32:35.906Z,92.07
2023-01-19T08:34:37.240Z,92.17
2023-01-19T08:36:38.649Z,92.29
2023-01-19T08:38:43.746Z,92.07
2023-01-19T08:40:45.421Z,92.17
2023-01-19T08:42:46.877Z,92.22
2023-01-19T08:44:57.665Z,91.96
2023-01-19T08:47:00.639Z,92.07
2023-01-19T08:49:02.613Z,91.97
2023-01-19T08:51:04.106Z,91.94
2023-01-19T08:53:08.557Z,91.91
2023-01-19T08:55:11.169Z,91.61
2023-01-19T08:57:12.614Z,91.51
2023-01-19T08:59:14.268Z,92.18
2023-01-19T09:01:19.897Z,91.58
2023-01-19T09:03:25.493Z,91.72
2023-01-19T09:05:27.644Z,91.48
2023-01-19T09:07:30.604Z,91.64
2023-01-19T09:09:39.769Z,91.42
2023-01-19T09:11:42.700Z,91.31
2023-01-19T09:13:47.453Z,91.71
2023-01-19T09:15:50.078Z,91.62
2023-01-19T09:17:53.207Z,91.59
2023-01-19T09:19:54.622Z,91.93
2023-01-19T09:21:56.110Z,91.75
2023-01-19T09:23:57.789Z,90.87
2023-01-19T09:26:01.962Z,91.12
2023-01-19T09:28:04.683Z,91.29
2023-01-19T09:30:07.297Z,91.21
2023-01-19T09:32:11.066Z,91.15
2023-01-19T09:34:12.611Z,91.22
2023-01-19T09:36:14.005Z,91.50
2023-01-19T09:38:22.489Z,91.30
2023-01-19T09:40:24.337Z,91.33
2023-01-19T09:42:37.536Z,91.33
2023-01-19T09:44:42.112Z,91.23
2023-01-19T09:46:43.509Z,91.00
2023-01-19T09:49:04.805Z,91.08
2023-01-19T09:51:13.654Z,91.08
2023-01-19T09:53:29.782Z,91.13
2023-01-19T09:55:31.247Z,91.09
2023-01-19T09:57:33.783Z,90.75
2023-01-19T09:59:36.604Z,91.02
2023-01-19T10:01:56.863Z,90.75
2023-01-19T10:04:19.692Z,90.90
2023-01-19T10:06:23.104Z,91.19
2023-01-19T10:08:45.604Z,90.91
2023-01-19T10:10:53.202Z,90.92
2023-01-19T10:13:24.959Z,90.88
2023-01-19T10:16:08.023Z,90.87
2023-01-19T10:18:47.616Z,90.73
2023-01-19T10:21:00.932Z,90.49
2023-01-19T10:23:05.964Z,90.71
2023-01-19T10:25:15.734Z,90.72
2023-01-19T10:27:19.013Z,90.82
2023-01-19T10:29:37.786Z,90.75
2023-01-19T10:31:42.229Z,90.37
2023-01-19T10:33:43.677Z,90.61
2023-01-19T10:35:48.066Z,89.85
2023-01-19T10:37:50.474Z,89.93
2023-01-19T10:39:55.587Z,90.14
2023-01-19T10:42:00.536Z,90.36
2023-01-19T10:44:04.243Z,90.15
2023-01-19T10:46:08.108Z,90.13
2023-01-19T10:48:12.247Z,89.94
2023-01-19T10:50:37.397Z,90.31
2023-01-19T10:52:44.600Z,90.27
2023-01-19T10:54:48.436Z,90.13
2023-01-19T10:56:55.532Z,90.18
2023-01-19T10:59:00.120Z,90.35
2023-01-19T11:01:18.783Z,90.10
2023-01-19T11:03:30.348Z,90.54
2023-01-19T11:05:35.449Z,90.52
2023-01-19T11:07:37.264Z,90.30
2023-01-19T11:09:38.646Z,89.89
2023-01-19T11:11:49.894Z,89.76
2023-01-19T11:14:13.686Z,89.82
2023-01-19T11:16:31.394Z,89.81
2023-01-19T11:18:43.223Z,89.90
2023-01-19T11:20:50.818Z,89.96
2023-01-19T11:23:32.065Z,89.98
2023-01-19T11:25:35.780Z,89.93
2023-01-19T11:27:37.816Z,89.82
2023-01-19T11:29:39.266Z,90.33
2023-01-19T11:31:41.028Z,89.71
2023-01-19T11:33:47.077Z,89.77
2023-01-19T11:35:51.159Z,90.04
2023-01-19T11:38:05.442Z,89.95
2023-01-19T11:40:08.828Z,89.77
2023-01-19T11:42:13.017Z,90.27
2023-01-19T11:44:39.130Z,89.85
2023-01-19T11:46:44.060Z,90.07
2023-01-19T11:48:56.542Z,89.90
2023-01-19T11:51:02.418Z,90.04
2023-01-19T11:53:16.646Z,90.16
2023-01-19T11:55:26.724Z,90.10
2023-01-19T11:57:28.202Z,89.74
2023-01-19T11:59:29.712Z,90.17
2023-01-19T12:01:34.419Z,89.76
2023-01-19T12:03:44.073Z,89.97
2023-01-19T12:05:51.046Z,89.84
2023-01-19T12:07:54.020Z,89.84
2023-01-19T12:10:06.363Z,89.62
2023-01-19T12:12:15.268Z,89.23
2023-01-19T12:14:23.484Z,89.67
2023-01-19T12:16:29.050Z,89.30
2023-01-19T12:18:38.355Z,89.35
2023-01-19T12:20:44.473Z,89.42
2023-01-19T12:22:54.211Z,89.47
2023-01-19T12:25:05.098Z,89.43
2023-01-19T12:27:30.359Z,89.44
2023-01-19T12:29:35.538Z,89.33
2023-01-19T12:31:38.320Z,89.53
2023-01-19T12:33:40.419Z,88.90
2023-01-19T12:35:58.478Z,89.06
2023-01-19T12:37:59.843Z,88.99
2023-01-19T12:40:17.400Z,89.11
2023-01-19T12:42:21.236Z,88.91
2023-01-19T12:44:27.689Z,89.07
2023-01-19T12:46:30.895Z,89.00
2023-01-19T12:48:32.774Z,89.18
2023-01-19T12:50:38.017Z,89.54
2023-01-19T12:52:49.327Z,88.97
2023-01-19T12:54:50.673Z,88.97
2023-01-19T12:56:58.431Z,88.93
2023-01-19T12:59:00.828Z,88.49
2023-01-19T13:01:13.985Z,88.60
2023-01-19T13:03:18.138Z,89.17
2023-01-19T13:05:42.915Z,89.14
2023-01-19T13:08:02.688Z,88.72
2023-01-19T13:10:22.668Z,88.52
2023-01-19T13:12:25.272Z,88.63
2023-01-19T13:14:38.026Z,89.36
2023-01-19T13:16:39.346Z,89.51
2023-01-19T13:18:43.754Z,89.19
2023-01-19T13:20:52.869Z,88.79
2023-01-19T13:23:14.507Z,89.46
2023-01-19T13:25:29.265Z,89.51
2023-01-19T13:27:30.987Z,88.32
2023-01-19T13:29:35.784Z,88.45
2023-01-19T13:31:40.221Z,88.45
2023-01-19T13:33:54.030Z,88.42
2023-01-19T13:35:59.088Z,88.88
2023-01-19T13:38:01.334Z,88.53
2023-01-19T13:40:03.597Z,89.00
2023-01-19T13:42:16.152Z,88.48
2023-01-19T13:44:25.883Z,88.93
2023-01-19T13:46:28.833Z,88.36
2023-01-19T13:48:32.125Z,88.21
2023-01-19T13:50:37.275Z,87.95
2023-01-19T13:52:43.361Z,87.26
2023-01-19T13:54:48.993Z,86.77
2023-01-19T13:56:50.438Z,87.55
2023-01-19T13:58:59.748Z,87.62
2023-01-19T14:01:01.187Z,87.60
2023-01-19T14:03:14.797Z,87.86
2023-01-19T14:05:20.909Z,87.47
2023-01-19T14:07:26.311Z,87.86
2023-01-19T14:09:27.895Z,88.22
2023-01-19T14:11:29.446Z,87.79
2023-01-19T14:13:43.108Z,88.04
2023-01-19T14:15:46.061Z,88.66
2023-01-19T14:18:11.557Z,88.78
2023-01-19T14:20:30.172Z,87.69
2023-01-19T14:22:45.551Z,87.39
2023-01-19T14:24:46.943Z,88.24
2023-01-19T14:26:53.895Z,88.36
2023-01-19T14:28:55.364Z,88.48
2023-01-19T14:31:17.322Z,88.15
2023-01-19T14:33:41.977Z,87.86
2023-01-19T14:35:43.540Z,88.29
2023-01-19T14:37:48.228Z,88.15
2023-01-19T14:40:08.022Z,88.70
2023-01-19T14:42:17.527Z,88.63
2023-01-19T14:44:28.230Z,88.06
2023-01-19T14:46:29.756Z,88.18
2023-01-19T14:48:31.317Z,88.52
2023-01-19T14:50:36.267Z,88.42
2023-01-19T14:52:41.129Z,88.56
2023-01-19T14:54:45.489Z,88.34
2023-01-19T14:56:47.769Z,89.09
2023-01-19T14:58:49.141Z,88.29
2023-01-19T15:00:55.526Z,88.51
2023-01-19T15:02:56.970Z,88.73
2023-01-19T15:04:58.395Z,88.27
2023-01-19T15:06:59.844Z,88.65
2023-01-19T15:09:01.221Z,89.18
2023-01-19T15:11:10.865Z,88.25
2023-01-19T15:13:22.091Z,88.11
2023-01-19T15:15:31.479Z,88.83
2023-01-19T15:17:32.951Z,88.59
2023-01-19T15:19:34.342Z,88.78
2023-01-19T15:21:35.723Z,88.85
2023-01-19T15:23:37.112Z,87.34
2023-01-19T15:25:39.457Z,88.52
2023-01-19T15:27:41.027Z,88.79
2023-01-19T15:29:42.690Z,88.86
2023-01-19T15:31:44.140Z,88.81
2023-01-19T15:33:45.686Z,88.94
2023-01-19T15:35:47.500Z,89.12
2023-01-19T15:37:50.124Z,88.71
2023-01-19T15:39:51.512Z,89.32
2023-01-19T15:41:53.175Z,89.32
2023-01-19T15:43:54.586Z,89.80
2023-01-19T15:46:02.546Z,89.90
2023-01-19T15:48:07.011Z,90.09
2023-01-19T15:50:09.204Z,90.10
2023-01-19T15:52:10.553Z,90.21
2023-01-19T15:54:16.318Z,89.78
2023-01-19T15:56:21.023Z,89.85
2023-01-19T15:58:23.528Z,89.92
2023-01-19T16:00:25.035Z,90.24
2023-01-19T16:02:26.452Z,90.32
2023-01-19T16:04:27.826Z,90.49
2023-01-19T16:06:30.436Z,90.39
2023-01-19T16:08:31.800Z,90.48
2023-01-19T16:10:35.012Z,90.81
2023-01-19T16:12:36.845Z,91.10
2023-01-19T16:14:38.230Z,91.10
2023-01-19T16:16:39.622Z,90.92
2023-01-19T16:18:40.985Z,90.95
2023-01-19T16:20:42.388Z,91.00
2023-01-19T16:22:43.811Z,91.47
2023-01-19T16:24:45.241Z,91.66
2023-01-19T16:26:46.609Z,91.27
2023-01-19T16:28:48.218Z,91.62
2023-01-19T16:30:49.681Z,91.79
2023-01-19T16:32:51.326Z,91.45
2023-01-19T16:34:52.676Z,91.98
2023-01-19T16:36:54.067Z,91.43
2023-01-19T16:39:02.075Z,91.81
2023-01-19T16:41:03.451Z,92.06
2023-01-19T16:43:04.934Z,92.06
2023-01-19T16:45:06.661Z,92.05
2023-01-19T16:47:08.485Z,91.69
2023-01-19T16:49:14.759Z,91.98
2023-01-19T16:51:17.914Z,92.56
2023-01-19T16:53:19.298Z,92.59
2023-01-19T16:55:20.697Z,92.50
2023-01-19T16:57:22.061Z,92.42
2023-01-19T16:59:24.502Z,92.29
2023-01-19T17:01:27.796Z,92.76
2023-01-19T17:03:29.919Z,92.45
2023-01-19T17:05:31.351Z,92.60
2023-01-19T17:07:32.747Z,92.83
2023-01-19T17:09:34.170Z,92.71
2023-01-19T17:11:36.326Z,92.81
2023-01-19T17:13:38.725Z,92.52
2023-01-19T17:15:40.375Z,92.56
2023-01-19T17:17:41.711Z,92.94
2023-01-19T17:19:44.970Z,93.17
2023-01-19T17:21:51.143Z,93.36
2023-01-19T17:23:54.251Z,93.32
2023-01-19T17:25:56.611Z,93.22
2023-01-19T17:28:01.059Z,92.99
2023-01-19T17:30:03.564Z,93.02
2023-01-19T17:32:05.194Z,93.10
2023-01-19T17:34:07.950Z,93.00
2023-01-19T17:36:13.070Z,92.97
2023-01-19T17:38:14.551Z,93.16
2023-01-19T17:40:16.276Z,93.03
2023-01-19T17:42:17.708Z,93.00
2023-01-19T17:44:19.155Z,92.22
2023-01-19T17:46:22.961Z,92.57
2023-01-19T17:48:24.349Z,92.55
2023-01-19T17:50:25.813Z,92.43
2023-01-19T17:52:27.262Z,92.66
2023-01-19T17:54:28.783Z,92.33
2023-01-19T17:56:33.009Z,92.25
2023-01-19T17:58:35.239Z,92.45
2023-01-19T18:00:36.643Z,92.53
2023-01-19T18:02:38.116Z,92.56
2023-01-19T18:04:39.990Z,92.78
2023-01-19T18:06:41.571Z,92.90
2023-01-19T18:08:46.099Z,92.94
2023-01-19T18:10:57.963Z,92.72
2023-01-19T18:12:59.333Z,92.70
2023-01-19T18:15:00.829Z,92.83
2023-01-19T18:17:02.216Z,93.13
2023-01-19T18:19:03.677Z,92.90
2023-01-19T18:21:09.380Z,92.77
2023-01-19T18:23:11.726Z,92.75
2023-01-19T18:25:13.145Z,92.50
2023-01-19T18:27:16.360Z,92.33
2023-01-19T18:29:19.236Z,93.00
2023-01-19T18:31:20.772Z,93.58
2023-01-19T18:33:22.449Z,93.04
2023-01-19T18:35:23.836Z,93.01
2023-01-19T18:37:25.266Z,93.01
2023-01-19T18:39:26.627Z,93.19
2023-01-19T18:41:29.853Z,92.98
2023-01-19T18:43:31.977Z,93.01
2023-01-19T18:45:33.441Z,92.78
2023-01-19T18:47:34.842Z,92.75
2023-01-19T18:49:36.307Z,93.31
2023-01-19T18:51:39.538Z,92.86
2023-01-19T18:53:41.406Z,93.51
2023-01-19T18:55:54.483Z,93.40
2023-01-19T18:57:55.873Z,93.21
2023-01-19T18:59:57.241Z,93.33
2023-01-19T19:02:01.357Z,93.79
2023-01-19T19:04:03.011Z,93.81
2023-01-19T19:06:04.590Z,93.67
2023-01-19T19:08:06.650Z,94.14
2023-01-19T19:10:11.808Z,93.29
2023-01-19T19:12:13.398Z,93.67
2023-01-19T19:14:14.815Z,94.11
2023-01-19T19:16:16.269Z,93.93
2023-01-19T19:18:17.966Z,94.42
2023-01-19T19:20:20.517Z,93.92
2023-01-19T19:22:23.635Z,93.71
2023-01-19T19:24:26.148Z,94.26
2023-01-19T19:26:28.338Z,94.09
2023-01-19T19:28:29.748Z,93.41
2023-01-19T19:30:34.186Z,93.75
2023-01-19T19:32:35.593Z,93.55
2023-01-19T19:34:37.119Z,93.38
2023-01-19T19:36:39.903Z,93.30
2023-01-19T19:38:42.749Z,93.23
2023-01-19T19:40:44.163Z,93.54
2023-01-19T19:42:48.529Z,93.24
2023-01-19T19:44:50.068Z,93.59
2023-01-19T19:46:51.485Z,93.70
2023-01-19T19:48:53.638Z,93.55
2023-01-19T19:50:56.051Z,93.29
2023-01-19T19:52:58.765Z,93.23
2023-01-19T19:55:00.163Z,93.27
2023-01-19T19:57:01.592Z,92.92
2023-01-19T19:59:03.560Z,93.69
2023-01-19T20:01:16.625Z,94.08
2023-01-19T20:03:18.553Z,94.00
2023-01-19T20:05:19.916Z,93.71
2023-01-19T20:07:21.307Z,93.67
2023-01-19T20:09:23.617Z,93.50
2023-01-19T20:11:28.241Z,93.72
2023-01-19T20:13:29.625Z,93.32
2023-01-19T20:15:32.097Z,93.80
2023-01-19T20:17:33.462Z,93.72
2023-01-19T20:19:34.845Z,93.49
2023-01-19T20:21:39.112Z,93.71
2023-01-19T20:23:41.376Z,93.28
2023-01-19T20:25:42.741Z,93.37
2023-01-19T20:27:45.055Z,93.47
2023-01-19T20:29:52.700Z,93.87
2023-01-19T20:31:57.049Z,93.55
2023-01-19T20:34:00.687Z,93.45
2023-01-19T20:36:02.082Z,93.02
2023-01-19T20:38:03.468Z,93.43
2023-01-19T20:40:05.160Z,93.58
2023-01-19T20:42:10.985Z,93.61
2023-01-19T20:44:15.611Z,93.70
2023-01-19T20:46:18.210Z,93.88
2023-01-19T20:48:19.633Z,93.60
2023-01-19T20:50:21.011Z,94.03
2023-01-19T20:52:22.563Z,93.74
2023-01-19T20:54:27.214Z,93.90
2023-01-19T20:56:28.675Z,93.73
2023-01-19T20:58:31.189Z,93.24
2023-01-19T21:00:33.047Z,93.96
2023-01-19T21:02:34.484Z,94.25
2023-01-19T21:04:35.868Z,93.86
2023-01-19T21:06:38.136Z,93.86
2023-01-19T21:08:39.873Z,93.83
2023-01-19T21:10:42.132Z,93.27
2023-01-19T21:12:44.751Z,93.29
2023-01-19T21:14:46.225Z,93.74
2023-01-19T21:16:50.799Z,93.47
2023-01-19T21:18:52.372Z,93.74
2023-01-19T21:23:27.284Z,93.56
2023-01-19T21:25:28.699Z,93.61
2023-01-19T21:27:34.140Z,93.30
2023-01-19T21:29:41.215Z,93.13
2023-01-19T21:31:44.417Z,93.26
2023-01-19T21:33:45.802Z,93.03
2023-01-19T21:35:57.552Z,93.83
2023-01-19T21:47:43.923Z,93.32
2023-01-19T21:49:45.275Z,93.40
2023-01-19T21:54:12.778Z,93.46
2023-01-19T21:56:15.367Z,93.33
2023-01-19T21:58:16.767Z,93.76
2023-01-19T22:00:18.479Z,93.82
2023-01-19T22:02:37.139Z,93.62
2023-01-19T22:04:39.688Z,93.24
2023-01-19T22:06:41.041Z,93.17
2023-01-19T22:08:42.560Z,93.17
2023-01-19T22:10:43.909Z,93.34
2023-01-19T22:12:45.277Z,92.99
2023-01-19T22:14:47.922Z,92.91
2023-01-19T22:16:49.328Z,93.01
2023-01-19T22:18:59.186Z,92.93
2023-01-19T22:23:36.808Z,92.88
2023-01-19T22:25:38.198Z,93.21
2023-01-19T22:27:39.590Z,93.62
2023-01-19T22:29:40.977Z,93.89
2023-01-19T22:31:43.122Z,93.20
2023-01-19T22:33:45.414Z,93.34
2023-01-19T22:35:46.781Z,93.02
2023-01-19T22:37:53.076Z,92.89
2023-01-19T22:39:54.464Z,93.12
2023-01-19T22:41:55.810Z,92.80
2023-01-19T22:43:59.665Z,93.19
2023-01-19T22:46:01.068Z,92.92
2023-01-19T22:48:02.501Z,92.95
2023-01-19T22:50:04.100Z,92.91
2023-01-19T22:52:05.583Z,93.08
2023-01-19T22:54:07.311Z,93.14
2023-01-19T22:56:26.458Z,93.60
2023-01-19T22:58:27.793Z,93.34
2023-01-19T23:00:29.178Z,92.97
2023-01-19T23:02:30.573Z,92.98
2023-01-19T23:04:31.918Z,92.76
2023-01-19T23:06:35.615Z,93.33
2023-01-19T23:08:37.268Z,93.31
2023-01-19T23:10:40.071Z,93.08
2023-01-19T23:12:41.505Z,93.26
2023-01-19T23:14:42.977Z,93.24
2023-01-19T23:16:46.976Z,93.14
2023-01-19T23:18:52.208Z,93.16
2023-01-19T23:20:53.619Z,93.13
2023-01-19T23:22:55.053Z,93.12
2023-01-19T23:24:56.499Z,93.16
2023-01-19T23:26:57.921Z,93.29
2023-01-19T23:29:01.632Z,92.72
2023-01-19T23:31:32.692Z,92.90
2023-01-19T23:33:34.126Z,93.06
2023-01-19T23:35:35.774Z,93.17
2023-01-19T23:37:37.118Z,93.32
2023-01-19T23:39:38.542Z,92.51
2023-01-19T23:41:40.045Z,92.92
2023-01-19T23:43:41.540Z,93.24
2023-01-19T23:45:43.096Z,93.05
2023-01-19T23:47:45.050Z,93.55
2023-01-19T23:49:46.482Z,92.97
2023-01-19T23:51:47.903Z,92.75
2023-01-19T23:53:50.077Z,92.78
2023-01-19T23:55:51.511Z,93.08
2023-01-19T23:57:52.877Z,93.34
2023-01-19T23:59:54.310Z,92.28
